sensor_id;sensor_type;location;lat;lon;timestamp;pressure;altitude;pressure_sealevel;temperature;humidity
7109;BME280;29079;41.930;25.558;2023-04-07T00:01:24;99386.88;;;6.57;50.47
7109;BME280;29079;41.930;25.558;2023-04-07T00:03:58;99379.94;;;6.68;51.36
7109;BME280;29079;41.930;25.558;2023-04-07T00:06:32;99385.94;;;6.34;51.52
7109;BME280;29079;41.930;25.558;2023-04-07T00:09:05;99376.63;;;6.53;51.32
7109;BME280;29079;41.930;25.558;2023-04-07T00:11:38;99379.22;;;6.66;53.00
7109;BME280;29079;41.930;25.558;2023-04-07T00:14:12;99377.63;;;6.63;52.71
7109;BME280;29079;41.930;25.558;2023-04-07T00:16:48;99371.97;;;6.68;50.74
7109;BME280;29079;41.930;25.558;2023-04-07T00:19:21;99379.22;;;6.66;51.12
7109;BME280;29079;41.930;25.558;2023-04-07T00:21:54;99378.44;;;6.28;50.89
7109;BME280;29079;41.930;25.558;2023-04-07T00:24:27;99380.88;;;6.55;50.47
7109;BME280;29079;41.930;25.558;2023-04-07T00:27:05;99375.38;;;6.45;51.34
7109;BME280;29079;41.930;25.558;2023-04-07T00:29:38;99368.97;;;6.37;49.52
7109;BME280;29079;41.930;25.558;2023-04-07T00:32:12;99374.50;;;6.34;49.95
7109;BME280;29079;41.930;25.558;2023-04-07T00:34:45;99368.06;;;6.25;49.89
7109;BME280;29079;41.930;25.558;2023-04-07T00:37:18;99376.31;;;6.33;49.58
7109;BME280;29079;41.930;25.558;2023-04-07T00:39:52;99278.63;;;5.67;51.46
7109;BME280;29079;41.930;25.558;2023-04-07T00:42:25;99385.69;;;6.37;50.96
7109;BME280;29079;41.930;25.558;2023-04-07T00:44:59;99390.50;;;6.32;50.44
7109;BME280;29079;41.930;25.558;2023-04-07T00:47:33;99383.16;;;6.36;50.70
7109;BME280;29079;41.930;25.558;2023-04-07T00:50:07;99382.03;;;6.27;52.21
7109;BME280;29079;41.930;25.558;2023-04-07T00:52:41;99390.47;;;6.45;50.08
7109;BME280;29079;41.930;25.558;2023-04-07T00:55:14;99380.81;;;6.44;49.66
7109;BME280;29079;41.930;25.558;2023-04-07T00:57:47;99385.22;;;6.32;49.66
7109;BME280;29079;41.930;25.558;2023-04-07T01:00:22;99383.34;;;6.45;53.41
7109;BME280;29079;41.930;25.558;2023-04-07T01:02:57;99387.22;;;6.28;48.99
7109;BME280;29079;41.930;25.558;2023-04-07T01:05:34;99392.41;;;6.30;49.85
7109;BME280;29079;41.930;25.558;2023-04-07T01:08:12;99378.31;;;6.30;49.72
7109;BME280;29079;41.930;25.558;2023-04-07T01:10:48;99386.38;;;6.28;48.93
7109;BME280;29079;41.930;25.558;2023-04-07T01:13:26;99377.69;;;6.50;49.25
7109;BME280;29079;41.930;25.558;2023-04-07T01:16:02;99379.09;;;6.43;48.94
7109;BME280;29079;41.930;25.558;2023-04-07T01:18:38;99382.94;;;6.15;48.63
7109;BME280;29079;41.930;25.558;2023-04-07T01:21:12;99383.22;;;6.47;48.10
7109;BME280;29079;41.930;25.558;2023-04-07T01:23:50;99383.63;;;6.30;48.07
7109;BME280;29079;41.930;25.558;2023-04-07T01:26:25;99394.63;;;6.36;48.62
7109;BME280;29079;41.930;25.558;2023-04-07T01:29:06;99394.34;;;6.28;48.63
7109;BME280;29079;41.930;25.558;2023-04-07T01:31:44;99407.03;;;6.36;51.71
7109;BME280;29079;41.930;25.558;2023-04-07T01:34:19;99403.53;;;6.35;49.17
7109;BME280;29079;41.930;25.558;2023-04-07T01:36:53;99406.31;;;6.34;49.18
7109;BME280;29079;41.930;25.558;2023-04-07T01:39:27;99401.13;;;6.32;48.64
7109;BME280;29079;41.930;25.558;2023-04-07T01:42:00;99415.09;;;6.34;49.85
7109;BME280;29079;41.930;25.558;2023-04-07T01:44:33;99403.88;;;6.31;49.12
7109;BME280;29079;41.930;25.558;2023-04-07T01:47:08;99400.53;;;6.40;53.68
7109;BME280;29079;41.930;25.558;2023-04-07T01:49:42;99411.91;;;6.42;49.40
7109;BME280;29079;41.930;25.558;2023-04-07T01:52:15;99403.13;;;6.53;51.21
7109;BME280;29079;41.930;25.558;2023-04-07T01:54:49;99400.06;;;6.35;49.94
7109;BME280;29079;41.930;25.558;2023-04-07T01:57:22;99405.56;;;6.56;52.61
7109;BME280;29079;41.930;25.558;2023-04-07T01:59:55;99405.66;;;6.30;49.51
7109;BME280;29079;41.930;25.558;2023-04-07T02:02:30;99405.84;;;6.40;50.70
7109;BME280;29079;41.930;25.558;2023-04-07T02:05:04;99409.41;;;6.27;50.13
7109;BME280;29079;41.930;25.558;2023-04-07T02:07:41;99404.94;;;6.28;49.36
7109;BME280;29079;41.930;25.558;2023-04-07T02:10:19;99415.69;;;6.14;50.31
7109;BME280;29079;41.930;25.558;2023-04-07T02:12:53;99414.38;;;6.32;51.31
7109;BME280;29079;41.930;25.558;2023-04-07T02:15:29;99411.09;;;6.28;50.87
7109;BME280;29079;41.930;25.558;2023-04-07T02:18:04;99411.19;;;6.27;51.89
7109;BME280;29079;41.930;25.558;2023-04-07T02:20:41;99411.34;;;6.13;53.97
7109;BME280;29079;41.930;25.558;2023-04-07T02:23:18;99414.00;;;6.13;50.64
7109;BME280;29079;41.930;25.558;2023-04-07T02:25:54;99408.31;;;6.30;53.15
7109;BME280;29079;41.930;25.558;2023-04-07T02:28:27;99417.47;;;6.26;50.43
7109;BME280;29079;41.930;25.558;2023-04-07T02:31:00;99415.03;;;6.23;50.56
7109;BME280;29079;41.930;25.558;2023-04-07T02:33:35;99415.38;;;6.42;50.88
7109;BME280;29079;41.930;25.558;2023-04-07T02:36:08;99421.56;;;6.30;53.46
7109;BME280;29079;41.930;25.558;2023-04-07T02:38:41;99410.69;;;6.22;55.12
7109;BME280;29079;41.930;25.558;2023-04-07T02:41:14;99415.13;;;6.21;50.42
7109;BME280;29079;41.930;25.558;2023-04-07T02:43:47;99418.78;;;6.07;50.93
7109;BME280;29079;41.930;25.558;2023-04-07T02:46:20;99417.28;;;6.16;51.59
7109;BME280;29079;41.930;25.558;2023-04-07T02:48:55;99422.97;;;6.23;51.02
7109;BME280;29079;41.930;25.558;2023-04-07T02:51:29;99430.81;;;6.24;53.25
7109;BME280;29079;41.930;25.558;2023-04-07T02:54:02;99420.97;;;6.26;51.51
7109;BME280;29079;41.930;25.558;2023-04-07T02:56:35;99428.63;;;6.42;54.95
7109;BME280;29079;41.930;25.558;2023-04-07T02:59:08;99420.44;;;6.21;50.11
7109;BME280;29079;41.930;25.558;2023-04-07T03:01:41;99419.50;;;6.47;51.44
7109;BME280;29079;41.930;25.558;2023-04-07T03:04:16;99421.22;;;6.10;49.94
7109;BME280;29079;41.930;25.558;2023-04-07T03:06:49;99429.81;;;6.38;51.43
7109;BME280;29079;41.930;25.558;2023-04-07T03:09:22;99424.78;;;6.22;49.77
7109;BME280;29079;41.930;25.558;2023-04-07T03:11:59;99428.47;;;6.33;50.56
7109;BME280;29079;41.930;25.558;2023-04-07T03:14:34;99432.13;;;6.19;50.28
7109;BME280;29079;41.930;25.558;2023-04-07T03:17:08;99429.25;;;6.22;50.19
7109;BME280;29079;41.930;25.558;2023-04-07T03:19:43;99430.69;;;6.02;50.11
7109;BME280;29079;41.930;25.558;2023-04-07T03:22:18;99435.22;;;6.00;50.23
7109;BME280;29079;41.930;25.558;2023-04-07T03:24:51;99432.97;;;6.19;51.41
7109;BME280;29079;41.930;25.558;2023-04-07T03:27:24;99434.28;;;6.01;52.58
7109;BME280;29079;41.930;25.558;2023-04-07T03:29:57;99438.63;;;5.89;49.74
7109;BME280;29079;41.930;25.558;2023-04-07T03:32:31;99428.94;;;6.14;49.75
7109;BME280;29079;41.930;25.558;2023-04-07T03:35:06;99432.31;;;6.16;50.78
7109;BME280;29079;41.930;25.558;2023-04-07T03:37:39;99427.56;;;6.08;49.81
7109;BME280;29079;41.930;25.558;2023-04-07T03:40:12;99433.06;;;6.18;51.11
7109;BME280;29079;41.930;25.558;2023-04-07T03:42:45;99439.03;;;6.08;49.40
7109;BME280;29079;41.930;25.558;2023-04-07T03:45:19;99434.09;;;6.28;50.44
7109;BME280;29079;41.930;25.558;2023-04-07T03:47:52;99447.91;;;6.20;49.29
7109;BME280;29079;41.930;25.558;2023-04-07T03:50:27;99441.88;;;6.05;49.46
7109;BME280;29079;41.930;25.558;2023-04-07T03:53:00;99451.31;;;5.84;49.44
7109;BME280;29079;41.930;25.558;2023-04-07T03:55:34;99450.28;;;5.99;51.31
7109;BME280;29079;41.930;25.558;2023-04-07T03:58:07;99450.16;;;6.14;50.49
7109;BME280;29079;41.930;25.558;2023-04-07T04:00:41;99457.38;;;5.99;49.54
7109;BME280;29079;41.930;25.558;2023-04-07T04:03:14;99462.00;;;5.95;49.48
7109;BME280;29079;41.930;25.558;2023-04-07T04:05:49;99462.22;;;5.92;51.18
7109;BME280;29079;41.930;25.558;2023-04-07T04:08:22;99460.53;;;5.91;49.86
7109;BME280;29079;41.930;25.558;2023-04-07T04:10:55;99472.72;;;5.93;50.58
7109;BME280;29079;41.930;25.558;2023-04-07T04:13:29;99471.66;;;5.96;50.28
7109;BME280;29079;41.930;25.558;2023-04-07T04:16:13;99471.13;;;5.91;51.16
7109;BME280;29079;41.930;25.558;2023-04-07T04:18:46;99474.19;;;6.23;52.96
7109;BME280;29079;41.930;25.558;2023-04-07T04:21:21;99473.38;;;6.10;50.91
7109;BME280;29079;41.930;25.558;2023-04-07T04:23:54;99476.41;;;5.91;50.14
7109;BME280;29079;41.930;25.558;2023-04-07T04:26:27;99476.41;;;5.91;49.95
7109;BME280;29079;41.930;25.558;2023-04-07T04:29:00;99482.38;;;6.07;49.95
7109;BME280;29079;41.930;25.558;2023-04-07T04:31:34;99487.56;;;5.96;49.38
7109;BME280;29079;41.930;25.558;2023-04-07T04:34:07;99479.28;;;6.14;51.70
7109;BME280;29079;41.930;25.558;2023-04-07T04:36:42;99484.16;;;6.20;50.03
7109;BME280;29079;41.930;25.558;2023-04-07T04:39:15;99485.50;;;6.25;52.85
7109;BME280;29079;41.930;25.558;2023-04-07T04:41:48;99483.22;;;6.08;49.83
7109;BME280;29079;41.930;25.558;2023-04-07T04:44:21;99493.19;;;6.17;53.21
7109;BME280;29079;41.930;25.558;2023-04-07T04:46:55;99492.97;;;6.07;50.04
7109;BME280;29079;41.930;25.558;2023-04-07T04:49:28;99488.50;;;6.08;49.65
7109;BME280;29079;41.930;25.558;2023-04-07T04:52:03;99496.34;;;6.09;50.04
7109;BME280;29079;41.930;25.558;2023-04-07T04:54:37;99498.88;;;6.24;50.86
7109;BME280;29079;41.930;25.558;2023-04-07T04:57:10;99512.03;;;6.00;49.12
7109;BME280;29079;41.930;25.558;2023-04-07T04:59:43;99496.25;;;5.98;49.29
7109;BME280;29079;41.930;25.558;2023-04-07T05:02:16;99501.97;;;6.18;49.86
7109;BME280;29079;41.930;25.558;2023-04-07T05:04:49;99506.63;;;6.14;49.95
7109;BME280;29079;41.930;25.558;2023-04-07T05:07:24;99502.81;;;6.05;48.63
7109;BME280;29079;41.930;25.558;2023-04-07T05:09:57;99504.84;;;6.02;49.11
7109;BME280;29079;41.930;25.558;2023-04-07T05:12:31;99518.41;;;6.10;49.08
7109;BME280;29079;41.930;25.558;2023-04-07T05:15:05;99519.69;;;6.17;49.49
7109;BME280;29079;41.930;25.558;2023-04-07T05:17:42;99523.72;;;6.10;50.04
7109;BME280;29079;41.930;25.558;2023-04-07T05:20:21;99522.22;;;6.19;53.55
7109;BME280;29079;41.930;25.558;2023-04-07T05:22:55;99522.41;;;6.16;48.55
7109;BME280;29079;41.930;25.558;2023-04-07T05:25:29;99519.56;;;6.19;49.29
7109;BME280;29079;41.930;25.558;2023-04-07T05:28:02;99521.66;;;6.26;49.87
7109;BME280;29079;41.930;25.558;2023-04-07T05:30:35;99528.56;;;6.29;49.33
7109;BME280;29079;41.930;25.558;2023-04-07T05:33:08;99531.09;;;6.31;49.10
7109;BME280;29079;41.930;25.558;2023-04-07T05:35:42;99534.81;;;6.28;48.89
7109;BME280;29079;41.930;25.558;2023-04-07T05:38:17;99532.03;;;6.42;49.98
7109;BME280;29079;41.930;25.558;2023-04-07T05:40:51;99532.38;;;6.25;48.99
7109;BME280;29079;41.930;25.558;2023-04-07T05:43:24;99533.66;;;6.19;48.59
7109;BME280;29079;41.930;25.558;2023-04-07T05:45:57;99538.00;;;6.33;49.72
7109;BME280;29079;41.930;25.558;2023-04-07T05:48:30;99533.63;;;6.32;47.85
7109;BME280;29079;41.930;25.558;2023-04-07T05:51:03;99534.69;;;6.30;48.34
7109;BME280;29079;41.930;25.558;2023-04-07T05:53:38;99533.63;;;6.32;47.72
7109;BME280;29079;41.930;25.558;2023-04-07T05:56:11;99536.31;;;6.56;49.13
7109;BME280;29079;41.930;25.558;2023-04-07T05:58:45;99532.50;;;6.60;47.34
7109;BME280;29079;41.930;25.558;2023-04-07T06:01:18;99539.75;;;6.45;46.76
7109;BME280;29079;41.930;25.558;2023-04-07T06:03:51;99536.75;;;6.50;46.76
7109;BME280;29079;41.930;25.558;2023-04-07T06:06:24;99541.00;;;6.53;47.32
7109;BME280;29079;41.930;25.558;2023-04-07T06:09:00;99539.97;;;6.42;46.67
7109;BME280;29079;41.930;25.558;2023-04-07T06:11:33;99540.56;;;6.59;46.81
7109;BME280;29079;41.930;25.558;2023-04-07T06:14:06;99539.91;;;6.68;47.01
7109;BME280;29079;41.930;25.558;2023-04-07T06:16:39;99533.97;;;6.65;46.68
7109;BME280;29079;41.930;25.558;2023-04-07T06:19:12;99537.66;;;6.75;47.97
7109;BME280;29079;41.930;25.558;2023-04-07T06:21:45;99548.09;;;6.65;46.64
7109;BME280;29079;41.930;25.558;2023-04-07T06:24:20;99547.22;;;7.02;46.26
7109;BME280;29079;41.930;25.558;2023-04-07T06:26:55;99543.44;;;6.93;46.66
7109;BME280;29079;41.930;25.558;2023-04-07T06:29:29;99552.63;;;7.00;46.85
7109;BME280;29079;41.930;25.558;2023-04-07T06:32:02;99552.88;;;7.08;47.12
7109;BME280;29079;41.930;25.558;2023-04-07T06:34:35;99554.28;;;6.90;45.24
7109;BME280;29079;41.930;25.558;2023-04-07T06:37:08;99554.13;;;7.15;48.42
7109;BME280;29079;41.930;25.558;2023-04-07T06:39:43;99559.38;;;7.04;44.58
7109;BME280;29079;41.930;25.558;2023-04-07T06:42:16;99560.63;;;7.11;44.98
7109;BME280;29079;41.930;25.558;2023-04-07T06:44:49;99556.72;;;7.04;44.63
7109;BME280;29079;41.930;25.558;2023-04-07T06:47:22;99562.50;;;6.98;43.90
7109;BME280;29079;41.930;25.558;2023-04-07T06:49:55;99571.13;;;6.89;44.33
7109;BME280;29079;41.930;25.558;2023-04-07T06:52:28;99570.09;;;7.03;43.71
7109;BME280;29079;41.930;25.558;2023-04-07T06:55:04;99575.66;;;7.00;43.49
7109;BME280;29079;41.930;25.558;2023-04-07T06:57:38;99563.50;;;7.08;43.37
7109;BME280;29079;41.930;25.558;2023-04-07T07:00:11;99576.34;;;7.14;44.15
7109;BME280;29079;41.930;25.558;2023-04-07T07:02:45;99581.47;;;7.05;43.37
7109;BME280;29079;41.930;25.558;2023-04-07T07:05:18;99579.59;;;7.18;43.65
7109;BME280;29079;41.930;25.558;2023-04-07T07:07:52;99581.25;;;7.32;43.55
7109;BME280;29079;41.930;25.558;2023-04-07T07:10:27;99580.28;;;7.33;44.67
7109;BME280;29079;41.930;25.558;2023-04-07T07:13:01;99589.22;;;7.43;43.79
7109;BME280;29079;41.930;25.558;2023-04-07T07:15:34;99591.78;;;7.45;42.92
7109;BME280;29079;41.930;25.558;2023-04-07T07:18:07;99590.16;;;7.31;43.66
7109;BME280;29079;41.930;25.558;2023-04-07T07:20:40;99589.75;;;7.24;43.90
7109;BME280;29079;41.930;25.558;2023-04-07T07:23:14;99598.13;;;7.31;44.41
7109;BME280;29079;41.930;25.558;2023-04-07T07:25:48;99595.91;;;7.49;44.51
7109;BME280;29079;41.930;25.558;2023-04-07T07:28:22;99607.41;;;7.61;43.41
7109;BME280;29079;41.930;25.558;2023-04-07T07:30:58;99605.69;;;7.48;42.58
7109;BME280;29079;41.930;25.558;2023-04-07T07:33:31;99612.19;;;7.44;45.23
7109;BME280;29079;41.930;25.558;2023-04-07T07:36:04;99621.63;;;7.48;44.74
7109;BME280;29079;41.930;25.558;2023-04-07T07:38:38;99628.81;;;7.35;43.55
7109;BME280;29079;41.930;25.558;2023-04-07T07:41:13;99620.31;;;7.30;43.24
7109;BME280;29079;41.930;25.558;2023-04-07T07:43:46;99621.34;;;7.40;43.92
7109;BME280;29079;41.930;25.558;2023-04-07T07:46:20;99620.44;;;7.53;46.29
7109;BME280;29079;41.930;25.558;2023-04-07T07:48:55;99620.38;;;7.41;44.28
7109;BME280;29079;41.930;25.558;2023-04-07T07:51:28;99620.78;;;7.48;43.96
7109;BME280;29079;41.930;25.558;2023-04-07T07:54:01;99617.59;;;7.43;43.78
7109;BME280;29079;41.930;25.558;2023-04-07T07:56:36;99630.06;;;7.42;43.92
7109;BME280;29079;41.930;25.558;2023-04-07T07:59:09;99631.34;;;7.37;44.39
7109;BME280;29079;41.930;25.558;2023-04-07T08:01:43;99628.63;;;7.49;44.87
7109;BME280;29079;41.930;25.558;2023-04-07T08:04:16;99632.22;;;7.73;44.07
7109;BME280;29079;41.930;25.558;2023-04-07T08:06:50;99633.78;;;7.75;44.77
7109;BME280;29079;41.930;25.558;2023-04-07T08:09:23;99629.06;;;7.67;44.19
7109;BME280;29079;41.930;25.558;2023-04-07T08:12:01;99623.91;;;7.77;43.67
7109;BME280;29079;41.930;25.558;2023-04-07T08:14:35;99633.34;;;7.81;43.96
7109;BME280;29079;41.930;25.558;2023-04-07T08:17:08;99634.19;;;7.82;43.25
7109;BME280;29079;41.930;25.558;2023-04-07T08:19:41;99633.03;;;7.97;44.95
7109;BME280;29079;41.930;25.558;2023-04-07T08:22:15;99626.25;;;7.93;44.07
7109;BME280;29079;41.930;25.558;2023-04-07T08:24:50;99628.28;;;7.90;43.54
7109;BME280;29079;41.930;25.558;2023-04-07T08:27:24;99620.59;;;8.09;44.46
7109;BME280;29079;41.930;25.558;2023-04-07T08:29:58;99617.72;;;8.24;43.75
7109;BME280;29079;41.930;25.558;2023-04-07T08:32:39;99619.50;;;8.23;43.25
7109;BME280;29079;41.930;25.558;2023-04-07T08:35:12;99615.03;;;8.35;43.05
7109;BME280;29079;41.930;25.558;2023-04-07T08:37:46;99616.69;;;8.60;44.75
7109;BME280;29079;41.930;25.558;2023-04-07T08:40:20;99619.78;;;8.43;41.95
7109;BME280;29079;41.930;25.558;2023-04-07T08:42:56;99621.59;;;8.31;42.39
7109;BME280;29079;41.930;25.558;2023-04-07T08:45:32;99616.72;;;8.25;41.81
7109;BME280;29079;41.930;25.558;2023-04-07T08:48:06;99612.06;;;8.51;41.34
7109;BME280;29079;41.930;25.558;2023-04-07T08:50:44;99614.47;;;8.88;40.18
7109;BME280;29079;41.930;25.558;2023-04-07T08:53:19;99616.59;;;9.05;40.20
7109;BME280;29079;41.930;25.558;2023-04-07T08:55:55;99611.97;;;9.19;38.82
7109;BME280;29079;41.930;25.558;2023-04-07T08:58:31;99607.13;;;9.24;38.79
7109;BME280;29079;41.930;25.558;2023-04-07T09:01:04;99616.81;;;9.25;39.55
7109;BME280;29079;41.930;25.558;2023-04-07T09:03:38;99622.75;;;9.17;39.13
7109;BME280;29079;41.930;25.558;2023-04-07T09:06:12;99616.97;;;9.12;41.28
7109;BME280;29079;41.930;25.558;2023-04-07T09:08:46;99616.63;;;9.38;39.07
7109;BME280;29079;41.930;25.558;2023-04-07T09:11:19;99612.56;;;9.55;39.97
7109;BME280;29079;41.930;25.558;2023-04-07T09:13:54;99603.88;;;9.53;39.09
7109;BME280;29079;41.930;25.558;2023-04-07T09:16:30;99618.38;;;9.16;43.53
7109;BME280;29079;41.930;25.558;2023-04-07T09:19:03;99615.13;;;9.24;40.04
7109;BME280;29079;41.930;25.558;2023-04-07T09:21:46;99605.19;;;9.15;39.38
7109;BME280;29079;41.930;25.558;2023-04-07T09:24:20;99604.59;;;9.22;40.35
7109;BME280;29079;41.930;25.558;2023-04-07T09:29:52;99601.22;;;9.74;43.87
7109;BME280;29079;41.930;25.558;2023-04-07T09:32:42;99599.16;;;9.78;42.80
7109;BME280;29079;41.930;25.558;2023-04-07T09:35:16;99600.91;;;9.88;42.90
7109;BME280;29079;41.930;25.558;2023-04-07T09:40:39;99591.06;;;9.89;43.08
7109;BME280;29079;41.930;25.558;2023-04-07T09:43:13;99598.50;;;9.85;41.04
7109;BME280;29079;41.930;25.558;2023-04-07T09:45:49;99608.00;;;9.78;42.70
7109;BME280;29079;41.930;25.558;2023-04-07T09:48:22;99595.34;;;9.80;41.40
7109;BME280;29079;41.930;25.558;2023-04-07T09:51:03;99593.25;;;9.95;41.26
7109;BME280;29079;41.930;25.558;2023-04-07T09:53:41;99593.19;;;10.16;40.91
7109;BME280;29079;41.930;25.558;2023-04-07T09:56:14;99603.16;;;10.14;40.85
7109;BME280;29079;41.930;25.558;2023-04-07T09:58:49;99591.66;;;9.50;40.90
7109;BME280;29079;41.930;25.558;2023-04-07T10:01:23;99593.31;;;9.30;40.79
7109;BME280;29079;41.930;25.558;2023-04-07T10:03:57;99592.03;;;9.67;40.54
7109;BME280;29079;41.930;25.558;2023-04-07T10:06:30;99588.66;;;9.86;42.41
7109;BME280;29079;41.930;25.558;2023-04-07T10:09:04;99591.34;;;10.07;42.89
7109;BME280;29079;41.930;25.558;2023-04-07T10:11:37;99592.22;;;10.17;42.48
7109;BME280;29079;41.930;25.558;2023-04-07T10:14:13;99591.63;;;10.14;41.03
7109;BME280;29079;41.930;25.558;2023-04-07T10:16:48;99587.44;;;10.11;41.61
7109;BME280;29079;41.930;25.558;2023-04-07T10:19:23;99588.88;;;10.15;41.29
7109;BME280;29079;41.930;25.558;2023-04-07T10:21:57;99578.44;;;10.12;42.97
7109;BME280;29079;41.930;25.558;2023-04-07T10:24:44;99578.81;;;10.28;43.87
7109;BME280;29079;41.930;25.558;2023-04-07T10:27:19;99577.50;;;10.44;41.25
7109;BME280;29079;41.930;25.558;2023-04-07T10:29:58;99574.56;;;10.97;42.23
7109;BME280;29079;41.930;25.558;2023-04-07T10:32:44;99573.81;;;10.66;40.15
7109;BME280;29079;41.930;25.558;2023-04-07T10:35:17;99581.28;;;10.82;41.71
7109;BME280;29079;41.930;25.558;2023-04-07T10:38:09;99572.34;;;11.03;41.64
7109;BME280;29079;41.930;25.558;2023-04-07T10:40:44;99570.88;;;10.69;40.74
7109;BME280;29079;41.930;25.558;2023-04-07T10:43:35;99578.13;;;10.57;41.74
7109;BME280;29079;41.930;25.558;2023-04-07T10:46:09;99578.09;;;10.98;42.53
7109;BME280;29079;41.930;25.558;2023-04-07T10:48:43;99576.13;;;11.00;40.90
7109;BME280;29079;41.930;25.558;2023-04-07T10:51:37;99572.44;;;10.82;43.34
7109;BME280;29079;41.930;25.558;2023-04-07T10:54:17;99570.50;;;11.03;42.06
7109;BME280;29079;41.930;25.558;2023-04-07T10:57:10;99569.41;;;11.35;41.05
7109;BME280;29079;41.930;25.558;2023-04-07T11:02:38;99569.84;;;11.30;40.31
7109;BME280;29079;41.930;25.558;2023-04-07T11:05:20;99566.16;;;11.41;41.44
7109;BME280;29079;41.930;25.558;2023-04-07T11:07:54;99556.19;;;11.04;40.26
7109;BME280;29079;41.930;25.558;2023-04-07T11:10:29;99564.06;;;11.45;41.85
7109;BME280;29079;41.930;25.558;2023-04-07T11:13:03;99562.22;;;11.55;42.70
7109;BME280;29079;41.930;25.558;2023-04-07T11:15:38;99557.41;;;11.88;40.93
7109;BME280;29079;41.930;25.558;2023-04-07T11:18:13;99558.38;;;12.07;40.83
7109;BME280;29079;41.930;25.558;2023-04-07T11:20:50;99554.91;;;11.77;41.55
7109;BME280;29079;41.930;25.558;2023-04-07T11:23:24;99562.09;;;11.66;41.18
7109;BME280;29079;41.930;25.558;2023-04-07T11:25:58;99549.31;;;11.50;41.85
7109;BME280;29079;41.930;25.558;2023-04-07T11:28:33;99560.81;;;11.61;41.95
7109;BME280;29079;41.930;25.558;2023-04-07T11:31:06;99559.69;;;11.34;42.02
7109;BME280;29079;41.930;25.558;2023-04-07T11:33:40;99551.69;;;11.24;43.05
7109;BME280;29079;41.930;25.558;2023-04-07T11:36:24;99553.66;;;11.22;41.69
7109;BME280;29079;41.930;25.558;2023-04-07T11:38:58;99559.53;;;11.06;46.19
7109;BME280;29079;41.930;25.558;2023-04-07T11:41:31;99561.53;;;11.33;54.73
7109;BME280;29079;41.930;25.558;2023-04-07T11:44:06;99556.03;;;11.06;42.88
7109;BME280;29079;41.930;25.558;2023-04-07T11:46:51;99558.69;;;10.96;43.43
7109;BME280;29079;41.930;25.558;2023-04-07T11:49:25;99551.66;;;11.05;45.10
7109;BME280;29079;41.930;25.558;2023-04-07T11:52:01;99557.03;;;11.24;43.37
7109;BME280;29079;41.930;25.558;2023-04-07T11:54:40;99554.34;;;11.34;45.88
7109;BME280;29079;41.930;25.558;2023-04-07T11:57:13;99555.75;;;11.38;44.80
7109;BME280;29079;41.930;25.558;2023-04-07T11:59:47;99545.63;;;11.61;45.71
7109;BME280;29079;41.930;25.558;2023-04-07T12:02:29;99540.94;;;11.83;44.47
7109;BME280;29079;41.930;25.558;2023-04-07T12:05:03;99545.91;;;11.48;46.57
7109;BME280;29079;41.930;25.558;2023-04-07T12:07:38;99549.59;;;11.47;47.02
7109;BME280;29079;41.930;25.558;2023-04-07T12:10:22;99545.66;;;11.32;46.63
7109;BME280;29079;41.930;25.558;2023-04-07T12:12:57;99534.09;;;11.02;46.13
7109;BME280;29079;41.930;25.558;2023-04-07T12:15:31;99542.16;;;11.31;47.16
7109;BME280;29079;41.930;25.558;2023-04-07T12:18:04;99542.25;;;11.40;49.19
7109;BME280;29079;41.930;25.558;2023-04-07T12:20:37;99543.53;;;11.45;49.06
7109;BME280;29079;41.930;25.558;2023-04-07T12:23:13;99544.94;;;11.40;46.32
7109;BME280;29079;41.930;25.558;2023-04-07T12:25:46;99541.97;;;11.43;46.36
7109;BME280;29079;41.930;25.558;2023-04-07T12:28:19;99541.69;;;11.56;49.04
7109;BME280;29079;41.930;25.558;2023-04-07T12:30:53;99545.66;;;11.42;47.77
7109;BME280;29079;41.930;25.558;2023-04-07T12:33:26;99539.19;;;11.35;49.33
7109;BME280;29079;41.930;25.558;2023-04-07T12:35:59;99528.19;;;11.18;48.94
7109;BME280;29079;41.930;25.558;2023-04-07T12:38:34;99529.19;;;11.17;48.50
7109;BME280;29079;41.930;25.558;2023-04-07T12:41:07;99531.56;;;11.40;49.23
7109;BME280;29079;41.930;25.558;2023-04-07T12:43:40;99532.44;;;11.30;48.35
7109;BME280;29079;41.930;25.558;2023-04-07T12:46:15;99532.00;;;11.45;51.29
7109;BME280;29079;41.930;25.558;2023-04-07T12:48:48;99536.38;;;11.26;49.06
7109;BME280;29079;41.930;25.558;2023-04-07T12:51:22;99531.88;;;11.17;48.10
7109;BME280;29079;41.930;25.558;2023-04-07T12:53:56;99525.94;;;11.43;49.21
7109;BME280;29079;41.930;25.558;2023-04-07T12:56:29;99520.59;;;11.43;48.62
7109;BME280;29079;41.930;25.558;2023-04-07T12:59:03;99528.94;;;11.30;49.02
7109;BME280;29079;41.930;25.558;2023-04-07T13:01:36;99528.50;;;11.35;48.52
7109;BME280;29079;41.930;25.558;2023-04-07T13:04:10;99519.22;;;11.39;48.47
7109;BME280;29079;41.930;25.558;2023-04-07T13:06:44;99516.94;;;11.63;48.67
7109;BME280;29079;41.930;25.558;2023-04-07T13:09:18;99504.50;;;11.82;48.24
7109;BME280;29079;41.930;25.558;2023-04-07T13:11:54;99505.06;;;11.76;48.87
7109;BME280;29079;41.930;25.558;2023-04-07T13:14:28;99499.78;;;11.56;48.16
7109;BME280;29079;41.930;25.558;2023-04-07T13:17:02;99498.78;;;11.57;50.41
7109;BME280;29079;41.930;25.558;2023-04-07T13:19:36;99504.44;;;11.44;48.80
7109;BME280;29079;41.930;25.558;2023-04-07T13:22:10;99505.69;;;11.50;50.89
7109;BME280;29079;41.930;25.558;2023-04-07T13:24:53;99506.28;;;11.24;49.31
7109;BME280;29079;41.930;25.558;2023-04-07T13:27:27;99505.72;;;11.30;50.40
7109;BME280;29079;41.930;25.558;2023-04-07T13:30:00;99504.56;;;11.43;50.48
7109;BME280;29079;41.930;25.558;2023-04-07T13:32:33;99507.97;;;11.45;50.46
7109;BME280;29079;41.930;25.558;2023-04-07T13:35:08;99511.50;;;11.26;50.58
7109;BME280;29079;41.930;25.558;2023-04-07T13:37:41;99504.00;;;11.49;51.82
7109;BME280;29079;41.930;25.558;2023-04-07T13:40:16;99506.84;;;11.47;51.06
7109;BME280;29079;41.930;25.558;2023-04-07T13:42:49;99504.03;;;11.29;50.62
7109;BME280;29079;41.930;25.558;2023-04-07T13:45:22;99497.56;;;11.42;50.30
7109;BME280;29079;41.930;25.558;2023-04-07T13:47:56;99507.38;;;11.41;50.88
7109;BME280;29079;41.930;25.558;2023-04-07T13:50:29;99498.53;;;11.60;51.01
7109;BME280;29079;41.930;25.558;2023-04-07T13:53:02;99494.00;;;11.71;51.05
7109;BME280;29079;41.930;25.558;2023-04-07T13:55:37;99493.78;;;11.82;51.16